createdAt,value
2023-04-24T00:04:33.425Z,4.65
2023-04-24T00:09:36.207Z,4.90
2023-04-24T00:14:39.832Z,4.72
2023-04-24T00:19:42.957Z,5.63
2023-04-24T00:24:46.040Z,5.00
2023-04-24T00:29:48.975Z,4.40
2023-04-24T00:34:51.732Z,5.38
2023-04-24T00:39:54.681Z,4.18
2023-04-24T00:44:58.184Z,4.05
2023-04-24T00:50:04.334Z,4.03
2023-04-24T00:55:08.463Z,4.60
2023-04-24T01:00:11.964Z,3.80
2023-04-24T01:05:16.391Z,5.00
2023-04-24T01:10:19.604Z,4.10
2023-04-24T01:15:23.744Z,4.20
2023-04-24T01:20:27.568Z,5.38
2023-04-24T01:25:30.929Z,4.95
2023-04-24T01:30:33.932Z,4.43
2023-04-24T01:35:37.516Z,3.85
2023-04-24T01:40:40.284Z,4.30
2023-04-24T01:45:43.343Z,4.45
2023-04-24T01:50:46.127Z,3.60
2023-04-24T01:55:48.968Z,3.70
2023-04-24T02:00:51.883Z,4.35
2023-04-24T02:05:54.620Z,4.22
2023-04-24T02:10:57.877Z,3.60
2023-04-24T02:16:01.080Z,4.28
2023-04-24T02:21:23.806Z,3.58
2023-04-24T02:26:26.749Z,3.28
2023-04-24T02:31:29.577Z,3.83
2023-04-24T02:36:32.918Z,4.18
2023-04-24T02:41:36.181Z,6.60
2023-04-24T02:46:39.407Z,3.30
2023-04-24T02:51:42.636Z,3.20
2023-04-24T02:56:45.504Z,3.63
2023-04-24T03:01:48.393Z,3.58
2023-04-24T03:06:54.193Z,4.20
2023-04-24T03:11:57.945Z,4.07
2023-04-24T03:17:01.179Z,4.30
2023-04-24T03:22:04.774Z,4.07
2023-04-24T03:27:08.611Z,4.72
2023-04-24T03:32:47.013Z,4.45
2023-04-24T03:37:54.509Z,4.50
2023-04-24T03:43:20.667Z,5.70
2023-04-24T03:48:23.797Z,4.80
2023-04-24T03:53:27.841Z,4.15
2023-04-24T03:58:32.302Z,4.03
2023-04-24T04:03:36.604Z,3.58
2023-04-24T04:08:39.621Z,3.63
2023-04-24T04:13:42.875Z,3.70
2023-04-24T04:18:46.586Z,3.47
2023-04-24T04:23:53.744Z,4.00
2023-04-24T04:29:04.693Z,3.55
2023-04-24T04:34:09.300Z,3.80
2023-04-24T04:39:12.645Z,5.05
2023-04-24T04:44:22.356Z,3.00
2023-04-24T04:49:29.796Z,3.73
2023-04-24T04:54:33.287Z,3.45
2023-04-24T04:59:36.424Z,3.00
2023-04-24T05:04:43.973Z,3.45
2023-04-24T05:09:47.495Z,2.88
2023-04-24T05:14:51.201Z,2.95
2023-04-24T05:19:54.027Z,4.45
2023-04-24T05:24:56.954Z,3.30
2023-04-24T05:30:12.075Z,3.38
2023-04-24T05:35:15.131Z,3.60
2023-04-24T05:40:18.327Z,4.00
2023-04-24T05:45:22.665Z,3.38
2023-04-24T05:50:25.508Z,3.42
2023-04-24T05:55:28.322Z,5.00
2023-04-24T06:00:31.122Z,3.90
2023-04-24T06:05:40.343Z,3.85
2023-04-24T06:10:43.812Z,3.33
2023-04-24T06:15:47.330Z,3.85
2023-04-24T06:20:58.019Z,3.90
2023-04-24T06:26:01.323Z,3.80
2023-04-24T06:31:04.215Z,3.70
2023-04-24T06:36:07.226Z,3.97
2023-04-24T06:41:10.980Z,4.35
2023-04-24T06:46:14.027Z,5.60
2023-04-24T06:51:16.957Z,4.60
2023-04-24T06:56:19.755Z,4.20
2023-04-24T07:01:22.490Z,5.93
2023-04-24T07:06:25.674Z,4.85
2023-04-24T07:11:30.626Z,5.05
2023-04-24T07:16:33.509Z,5.13
2023-04-24T07:21:36.668Z,5.38
2023-04-24T07:26:41.261Z,5.32
2023-04-24T07:31:44.263Z,5.20
2023-04-24T07:36:47.555Z,6.45
2023-04-24T07:41:50.283Z,4.50
2023-04-24T07:46:53.197Z,5.32
2023-04-24T07:51:56.488Z,4.13
2023-04-24T07:56:59.348Z,3.65
2023-04-24T08:02:03.057Z,3.70
2023-04-24T08:07:05.852Z,3.17
2023-04-24T08:12:08.802Z,4.25
2023-04-24T08:17:11.904Z,3.80
2023-04-24T08:22:15.028Z,3.90
2023-04-24T08:27:18.115Z,4.15
2023-04-24T08:32:20.991Z,4.47
2023-04-24T08:37:24.561Z,2.97
2023-04-24T08:42:30.114Z,3.60
2023-04-24T08:52:36.398Z,3.63
2023-04-24T08:57:41.482Z,3.20
2023-04-24T09:02:45.385Z,3.10
2023-04-24T09:07:52.080Z,2.75
2023-04-24T09:12:56.402Z,4.15
2023-04-24T09:17:59.455Z,8.80
2023-04-24T09:23:02.272Z,3.45
2023-04-24T09:28:05.865Z,2.90
2023-04-24T09:33:26.609Z,2.50
2023-04-24T09:38:47.777Z,2.40
2023-04-24T09:43:50.671Z,2.65
2023-04-24T09:48:53.472Z,2.10
2023-04-24T09:53:56.818Z,2.60
2023-04-24T09:59:08.058Z,2.60
2023-04-24T10:04:22.252Z,2.35
2023-04-24T10:09:27.678Z,2.25
2023-04-24T10:14:31.460Z,2.45
2023-04-24T10:19:34.808Z,2.42
2023-04-24T10:24:39.706Z,2.55
2023-04-24T10:29:44.529Z,2.45
2023-04-24T10:34:49.288Z,3.03
2023-04-24T10:39:55.617Z,2.67
2023-04-24T10:44:59.705Z,2.15
2023-04-24T10:50:02.775Z,2.47
2023-04-24T10:55:06.763Z,2.55
2023-04-24T11:00:17.084Z,2.30
2023-04-24T11:05:21.357Z,2.55
2023-04-24T11:10:30.911Z,2.03
2023-04-24T11:15:36.493Z,2.05
2023-04-24T11:20:46.584Z,2.95
2023-04-24T11:26:19.391Z,2.47
2023-04-24T11:31:49.896Z,1.90
2023-04-24T11:36:52.962Z,2.60
2023-04-24T11:42:04.302Z,2.30
2023-04-24T11:47:08.524Z,3.15
2023-04-24T11:52:12.102Z,4.15
2023-04-24T11:57:14.989Z,2.95
2023-04-24T12:02:27.596Z,2.90
2023-04-24T12:07:30.368Z,3.00
2023-04-24T12:12:33.217Z,3.15
2023-04-24T12:17:50.808Z,2.53
2023-04-24T12:22:58.361Z,2.63
2023-04-24T12:28:07.493Z,2.67
2023-04-24T12:33:10.433Z,2.70
2023-04-24T12:38:15.135Z,3.30
2023-04-24T12:43:19.785Z,2.83
2023-04-24T12:48:23.809Z,3.15
2023-04-24T12:53:28.057Z,3.20
2023-04-24T12:58:31.005Z,2.90
2023-04-24T13:03:33.996Z,3.00
2023-04-24T13:08:36.820Z,3.30
2023-04-24T13:13:42.319Z,3.47
2023-04-24T13:18:45.313Z,3.92
2023-04-24T13:23:48.250Z,3.85
2023-04-24T13:28:53.393Z,4.03
2023-04-24T13:33:56.247Z,4.13
2023-04-24T13:38:59.242Z,4.38
2023-04-24T13:44:03.749Z,4.18
2023-04-24T13:49:06.507Z,3.75
2023-04-24T13:54:09.720Z,3.88
2023-04-24T13:59:14.373Z,3.38
2023-04-24T14:04:17.261Z,3.30
2023-04-24T14:09:20.240Z,3.53
2023-04-24T14:14:23.489Z,3.17
2023-04-24T14:19:26.366Z,3.20
2023-04-24T14:24:29.087Z,3.30
2023-04-24T14:29:33.146Z,3.20
2023-04-24T14:34:37.734Z,3.20
2023-04-24T14:39:40.541Z,3.38
2023-04-24T14:44:43.401Z,4.40
2023-04-24T14:49:46.263Z,4.90
2023-04-24T14:54:51.695Z,4.03
2023-04-24T14:59:55.205Z,5.78
2023-04-24T15:04:58.398Z,6.00
2023-04-24T15:10:01.416Z,4.72
2023-04-24T15:15:07.329Z,5.40
2023-04-24T15:20:11.007Z,4.63
2023-04-24T15:25:13.834Z,5.60
2023-04-24T15:30:16.867Z,5.95
2023-04-24T15:35:19.862Z,5.97
2023-04-24T15:40:22.849Z,5.97
2023-04-24T15:45:26.556Z,6.38
2023-04-24T15:50:32.829Z,5.88
2023-04-24T15:55:37.787Z,5.32
2023-04-24T16:00:41.015Z,6.37
2023-04-24T16:05:43.887Z,6.30
2023-04-24T16:10:47.440Z,6.38
2023-04-24T16:15:51.348Z,6.53
2023-04-24T16:20:54.189Z,7.90
2023-04-24T16:25:57.107Z,6.63
2023-04-24T16:30:59.866Z,6.70
2023-04-24T16:36:03.748Z,7.65
2023-04-24T16:41:07.733Z,8.07
2023-04-24T16:46:10.748Z,7.57
2023-04-24T16:51:13.617Z,7.75
2023-04-24T16:56:16.620Z,8.23
2023-04-24T17:01:19.616Z,6.60
2023-04-24T17:06:22.451Z,5.68
2023-04-24T17:11:25.398Z,2.33
2023-04-24T17:16:28.326Z,1.13
2023-04-24T17:21:31.959Z,0.77
2023-04-24T17:26:34.815Z,0.47
2023-04-24T17:31:37.713Z,0.30
2023-04-24T17:36:40.997Z,0.20
2023-04-24T17:41:43.994Z,0.10
2023-04-24T17:46:46.777Z,0.10
2023-04-24T17:51:49.478Z,0.17
2023-04-24T17:56:53.374Z,0.10
2023-04-24T18:01:56.259Z,0.10
2023-04-24T18:06:59.315Z,0.20
2023-04-24T18:12:02.265Z,0.10
2023-04-24T18:17:05.160Z,0.20
2023-04-24T18:22:08.159Z,0.15
2023-04-24T18:27:11.065Z,0.10
2023-04-24T18:32:14.020Z,0.50
2023-04-24T18:37:17.077Z,0.40
2023-04-24T18:42:20.054Z,0.10
2023-04-24T18:47:22.889Z,0.20
2023-04-24T18:52:26.404Z,0.30
2023-04-24T18:57:29.156Z,0.30
2023-04-24T19:02:33.950Z,0.30
2023-04-24T19:07:37.254Z,0.38
2023-04-24T19:12:40.063Z,0.30
2023-04-24T19:17:42.881Z,0.28
2023-04-24T19:22:46.647Z,0.10
2023-04-24T19:27:49.429Z,0.30
2023-04-24T19:32:52.199Z,0.30
2023-04-24T19:37:55.041Z,0.32
2023-04-24T19:42:58.041Z,0.10
2023-04-24T19:48:01.040Z,0.30
2023-04-24T19:53:03.994Z,0.30
2023-04-24T19:58:06.995Z,0.40
2023-04-24T20:03:15.900Z,0.70
2023-04-24T20:13:28.496Z,0.80
2023-04-24T20:18:31.469Z,0.75
2023-04-24T20:23:34.396Z,1.10
2023-04-24T20:28:37.641Z,0.55
2023-04-24T20:33:41.882Z,1.00
2023-04-24T20:38:44.651Z,0.70
2023-04-24T20:43:47.811Z,0.75
2023-04-24T20:48:50.990Z,0.70
2023-04-24T20:53:53.902Z,0.98
2023-04-24T20:58:57.436Z,1.02
2023-04-24T21:04:00.515Z,0.80
2023-04-24T21:09:03.861Z,0.45
2023-04-24T21:14:06.746Z,1.00
2023-04-24T21:19:09.468Z,0.77
2023-04-24T21:24:12.265Z,1.00
2023-04-24T21:29:15.183Z,0.50
2023-04-24T21:34:17.897Z,0.73
2023-04-24T21:39:21.311Z,0.60
2023-04-24T21:44:24.088Z,0.60
2023-04-24T21:49:26.908Z,0.50
2023-04-24T21:54:29.666Z,0.50
2023-04-24T21:59:32.573Z,0.45
2023-04-24T22:04:35.665Z,0.60
2023-04-24T22:09:38.644Z,0.50
2023-04-24T22:14:41.340Z,0.50
2023-04-24T22:19:44.368Z,0.70
2023-04-24T22:24:47.413Z,0.50
2023-04-24T22:29:50.237Z,0.50
2023-04-24T22:34:53.122Z,0.38
2023-04-24T22:39:56.653Z,0.50
2023-04-24T22:44:59.363Z,0.30
2023-04-24T22:50:03.772Z,0.60
2023-04-24T22:55:07.335Z,0.50
2023-04-24T23:00:13.080Z,0.63
2023-04-24T23:05:16.193Z,0.50
2023-04-24T23:10:19.066Z,0.43
2023-04-24T23:15:22.148Z,0.65
2023-04-24T23:20:24.927Z,0.80
2023-04-24T23:25:27.774Z,0.70
2023-04-24T23:30:30.813Z,0.63
2023-04-24T23:35:33.631Z,0.80
2023-04-24T23:40:36.490Z,0.88
2023-04-24T23:45:40.653Z,0.75
2023-04-24T23:50:44.049Z,0.75
2023-04-24T23:55:46.893Z,1.05
